sensor_id;sensor_type;location;lat;lon;timestamp;temperature;humidity
19552;DHT22;9921;47.186;9.778;2022-12-18T00:00:13;-4.80;99.90
19552;DHT22;9921;47.186;9.778;2022-12-18T00:02:40;-4.90;99.90
19552;DHT22;9921;47.186;9.778;2022-12-18T00:05:08;-5.00;99.90
19552;DHT22;9921;47.186;9.778;2022-12-18T00:07:35;-5.00;99.90
19552;DHT22;9921;47.186;9.778;2022-12-18T00:10:03;-4.80;99.90
19552;DHT22;9921;47.186;9.778;2022-12-18T00:12:30;-4.60;99.90
19552;DHT22;9921;47.186;9.778;2022-12-18T00:14:57;-4.80;99.90
19552;DHT22;9921;47.186;9.778;2022-12-18T00:17:23;-4.80;99.90
19552;DHT22;9921;47.186;9.778;2022-12-18T00:19:50;-4.70;99.90
19552;DHT22;9921;47.186;9.778;2022-12-18T00:22:18;-4.50;99.90
19552;DHT22;9921;47.186;9.778;2022-12-18T00:24:45;-4.40;99.90
19552;DHT22;9921;47.186;9.778;2022-12-18T00:27:12;-4.30;99.90
19552;DHT22;9921;47.186;9.778;2022-12-18T00:29:42;-4.40;99.90
19552;DHT22;9921;47.186;9.778;2022-12-18T00:32:08;-4.80;99.90
19552;DHT22;9921;47.186;9.778;2022-12-18T00:34:35;-4.80;99.90
19552;DHT22;9921;47.186;9.778;2022-12-18T00:37:02;-4.90;99.90
19552;DHT22;9921;47.186;9.778;2022-12-18T00:39:30;-4.80;99.90
19552;DHT22;9921;47.186;9.778;2022-12-18T00:41:57;-4.70;99.90
19552;DHT22;9921;47.186;9.778;2022-12-18T00:44:41;-4.70;99.90
19552;DHT22;9921;47.186;9.778;2022-12-18T00:47:08;-4.60;99.90
19552;DHT22;9921;47.186;9.778;2022-12-18T00:49:35;-4.80;99.90
19552;DHT22;9921;47.186;9.778;2022-12-18T00:52:02;-4.70;99.90
19552;DHT22;9921;47.186;9.778;2022-12-18T00:54:30;-4.70;99.90
19552;DHT22;9921;47.186;9.778;2022-12-18T00:56:57;-4.70;99.90
19552;DHT22;9921;47.186;9.778;2022-12-18T00:59:24;-5.20;99.90
19552;DHT22;9921;47.186;9.778;2022-12-18T01:01:50;-5.50;99.90
19552;DHT22;9921;47.186;9.778;2022-12-18T01:04:17;-5.80;99.90
19552;DHT22;9921;47.186;9.778;2022-12-18T01:06:44;-5.60;99.90
19552;DHT22;9921;47.186;9.778;2022-12-18T01:09:11;-5.50;99.90
19552;DHT22;9921;47.186;9.778;2022-12-18T01:11:39;-5.20;99.90
19552;DHT22;9921;47.186;9.778;2022-12-18T01:14:06;-5.20;99.90
19552;DHT22;9921;47.186;9.778;2022-12-18T01:16:33;-5.30;99.90
19552;DHT22;9921;47.186;9.778;2022-12-18T01:19:00;-5.30;99.90
19552;DHT22;9921;47.186;9.778;2022-12-18T01:21:27;-5.30;99.90
19552;DHT22;9921;47.186;9.778;2022-12-18T01:23:54;-5.30;99.90
19552;DHT22;9921;47.186;9.778;2022-12-18T01:26:22;-5.10;99.90
19552;DHT22;9921;47.186;9.778;2022-12-18T01:28:50;-5.10;99.90
19552;DHT22;9921;47.186;9.778;2022-12-18T01:31:19;-5.00;99.90
19552;DHT22;9921;47.186;9.778;2022-12-18T01:33:51;-4.80;99.90
19552;DHT22;9921;47.186;9.778;2022-12-18T01:36:20;-4.70;99.90
19552;DHT22;9921;47.186;9.778;2022-12-18T01:38:47;-4.60;99.90
19552;DHT22;9921;47.186;9.778;2022-12-18T01:41:16;-4.70;99.90
19552;DHT22;9921;47.186;9.778;2022-12-18T01:43:50;-5.00;99.90
19552;DHT22;9921;47.186;9.778;2022-12-18T01:46:18;-5.10;99.90
19552;DHT22;9921;47.186;9.778;2022-12-18T01:48:48;-5.20;99.90
19552;DHT22;9921;47.186;9.778;2022-12-18T01:51:16;-5.30;99.90
19552;DHT22;9921;47.186;9.778;2022-12-18T01:53:44;-5.40;99.90
19552;DHT22;9921;47.186;9.778;2022-12-18T01:56:16;-5.40;99.90
19552;DHT22;9921;47.186;9.778;2022-12-18T01:58:52;-5.40;99.90
19552;DHT22;9921;47.186;9.778;2022-12-18T02:01:22;-5.30;99.90
19552;DHT22;9921;47.186;9.778;2022-12-18T02:03:49;-5.30;99.90
19552;DHT22;9921;47.186;9.778;2022-12-18T02:06:20;-5.20;99.90
19552;DHT22;9921;47.186;9.778;2022-12-18T02:08:56;-5.20;99.90
19552;DHT22;9921;47.186;9.778;2022-12-18T02:11:39;-5.10;99.90
19552;DHT22;9921;47.186;9.778;2022-12-18T02:14:17;-5.10;99.90
19552;DHT22;9921;47.186;9.778;2022-12-18T02:16:49;-5.00;99.90
19552;DHT22;9921;47.186;9.778;2022-12-18T02:19:34;-5.10;99.90
19552;DHT22;9921;47.186;9.778;2022-12-18T02:22:14;-5.50;99.90
19552;DHT22;9921;47.186;9.778;2022-12-18T02:24:51;-5.50;99.90
19552;DHT22;9921;47.186;9.778;2022-12-18T02:27:22;-5.60;99.90
19552;DHT22;9921;47.186;9.778;2022-12-18T02:29:51;-5.50;99.90
19552;DHT22;9921;47.186;9.778;2022-12-18T02:32:23;-5.40;99.90
19552;DHT22;9921;47.186;9.778;2022-12-18T02:34:51;-5.40;99.90
19552;DHT22;9921;47.186;9.778;2022-12-18T02:37:19;-5.90;99.90
19552;DHT22;9921;47.186;9.778;2022-12-18T02:39:48;-6.10;99.90
19552;DHT22;9921;47.186;9.778;2022-12-18T02:42:16;-5.90;99.90
19552;DHT22;9921;47.186;9.778;2022-12-18T02:44:46;-5.80;99.90
19552;DHT22;9921;47.186;9.778;2022-12-18T02:47:16;-5.70;99.90
19552;DHT22;9921;47.186;9.778;2022-12-18T02:49:50;-5.60;99.90
19552;DHT22;9921;47.186;9.778;2022-12-18T02:52:33;-5.50;99.90
19552;DHT22;9921;47.186;9.778;2022-12-18T02:55:10;-5.40;99.90
19552;DHT22;9921;47.186;9.778;2022-12-18T02:57:44;-5.40;99.90
19552;DHT22;9921;47.186;9.778;2022-12-18T03:00:16;-5.30;99.90
19552;DHT22;9921;47.186;9.778;2022-12-18T03:02:50;-5.60;99.90
19552;DHT22;9921;47.186;9.778;2022-12-18T03:05:21;-5.70;99.90
19552;DHT22;9921;47.186;9.778;2022-12-18T03:07:55;-5.70;99.90
19552;DHT22;9921;47.186;9.778;2022-12-18T03:10:26;-5.60;99.90
19552;DHT22;9921;47.186;9.778;2022-12-18T03:12:58;-5.80;99.90
19552;DHT22;9921;47.186;9.778;2022-12-18T03:15:31;-5.90;99.90
19552;DHT22;9921;47.186;9.778;2022-12-18T03:18:01;-5.80;99.90
19552;DHT22;9921;47.186;9.778;2022-12-18T03:20:31;-5.80;99.90
19552;DHT22;9921;47.186;9.778;2022-12-18T03:23:04;-5.80;99.90
19552;DHT22;9921;47.186;9.778;2022-12-18T03:25:34;-5.80;99.90
19552;DHT22;9921;47.186;9.778;2022-12-18T03:28:05;-5.80;99.90
19552;DHT22;9921;47.186;9.778;2022-12-18T03:30:38;-5.80;99.90
19552;DHT22;9921;47.186;9.778;2022-12-18T03:33:09;-6.00;99.90
19552;DHT22;9921;47.186;9.778;2022-12-18T03:35:39;-6.00;99.90
19552;DHT22;9921;47.186;9.778;2022-12-18T03:38:07;-5.90;99.90
19552;DHT22;9921;47.186;9.778;2022-12-18T03:40:43;-5.80;99.90
19552;DHT22;9921;47.186;9.778;2022-12-18T03:43:15;-5.80;99.90
19552;DHT22;9921;47.186;9.778;2022-12-18T03:45:50;-6.00;99.90
19552;DHT22;9921;47.186;9.778;2022-12-18T03:48:23;-6.00;99.90
19552;DHT22;9921;47.186;9.778;2022-12-18T03:50:56;-6.10;99.90
19552;DHT22;9921;47.186;9.778;2022-12-18T03:53:31;-6.00;99.90
19552;DHT22;9921;47.186;9.778;2022-12-18T03:56:00;-6.00;99.90
19552;DHT22;9921;47.186;9.778;2022-12-18T03:58:29;-6.00;99.90
19552;DHT22;9921;47.186;9.778;2022-12-18T04:01:01;-5.90;99.90
19552;DHT22;9921;47.186;9.778;2022-12-18T04:03:29;-5.90;99.90
19552;DHT22;9921;47.186;9.778;2022-12-18T04:05:59;-6.00;99.90
19552;DHT22;9921;47.186;9.778;2022-12-18T04:08:27;-6.20;99.90
19552;DHT22;9921;47.186;9.778;2022-12-18T04:10:55;-6.30;99.90
19552;DHT22;9921;47.186;9.778;2022-12-18T04:13:22;-6.50;99.90
19552;DHT22;9921;47.186;9.778;2022-12-18T04:15:49;-6.50;99.90
19552;DHT22;9921;47.186;9.778;2022-12-18T04:18:18;-6.40;99.90
19552;DHT22;9921;47.186;9.778;2022-12-18T04:20:44;-6.20;99.90
19552;DHT22;9921;47.186;9.778;2022-12-18T04:23:11;-6.30;99.90
19552;DHT22;9921;47.186;9.778;2022-12-18T04:25:38;-6.30;99.90
19552;DHT22;9921;47.186;9.778;2022-12-18T04:28:05;-6.20;99.90
19552;DHT22;9921;47.186;9.778;2022-12-18T04:30:32;-6.30;99.90
19552;DHT22;9921;47.186;9.778;2022-12-18T04:32:59;-6.30;99.90
19552;DHT22;9921;47.186;9.778;2022-12-18T04:35:27;-6.20;99.90
19552;DHT22;9921;47.186;9.778;2022-12-18T04:37:54;-6.10;99.90
19552;DHT22;9921;47.186;9.778;2022-12-18T04:40:21;-6.10;99.90
19552;DHT22;9921;47.186;9.778;2022-12-18T04:42:47;-6.00;99.90
19552;DHT22;9921;47.186;9.778;2022-12-18T04:45:14;-5.90;99.90
19552;DHT22;9921;47.186;9.778;2022-12-18T04:47:41;-5.90;99.90
19552;DHT22;9921;47.186;9.778;2022-12-18T04:50:08;-5.80;99.90
19552;DHT22;9921;47.186;9.778;2022-12-18T04:52:36;-5.80;99.90
19552;DHT22;9921;47.186;9.778;2022-12-18T04:55:04;-6.00;99.90
19552;DHT22;9921;47.186;9.778;2022-12-18T04:57:31;-6.20;99.90
19552;DHT22;9921;47.186;9.778;2022-12-18T04:59:57;-6.20;99.90
19552;DHT22;9921;47.186;9.778;2022-12-18T05:02:24;-6.20;99.90
19552;DHT22;9921;47.186;9.778;2022-12-18T05:04:51;-6.20;99.90
19552;DHT22;9921;47.186;9.778;2022-12-18T05:07:18;-6.20;99.90
19552;DHT22;9921;47.186;9.778;2022-12-18T05:09:46;-6.10;99.90
19552;DHT22;9921;47.186;9.778;2022-12-18T05:12:13;-6.00;99.90
19552;DHT22;9921;47.186;9.778;2022-12-18T05:14:39;-6.00;99.90
19552;DHT22;9921;47.186;9.778;2022-12-18T05:17:06;-6.00;99.90
19552;DHT22;9921;47.186;9.778;2022-12-18T05:19:33;-6.10;99.90
19552;DHT22;9921;47.186;9.778;2022-12-18T05:22:00;-6.10;99.90
19552;DHT22;9921;47.186;9.778;2022-12-18T05:24:27;-6.10;99.90
19552;DHT22;9921;47.186;9.778;2022-12-18T05:26:55;-6.20;99.90
19552;DHT22;9921;47.186;9.778;2022-12-18T05:29:22;-6.20;99.90
19552;DHT22;9921;47.186;9.778;2022-12-18T05:31:49;-6.50;99.90
19552;DHT22;9921;47.186;9.778;2022-12-18T05:34:16;-6.50;99.90
19552;DHT22;9921;47.186;9.778;2022-12-18T05:36:43;-6.40;99.90
19552;DHT22;9921;47.186;9.778;2022-12-18T05:39:10;-6.30;99.90
19552;DHT22;9921;47.186;9.778;2022-12-18T05:41:37;-6.30;99.90
19552;DHT22;9921;47.186;9.778;2022-12-18T05:44:05;-6.30;99.90
19552;DHT22;9921;47.186;9.778;2022-12-18T05:46:32;-6.30;99.90
19552;DHT22;9921;47.186;9.778;2022-12-18T05:48:59;-6.30;99.90
19552;DHT22;9921;47.186;9.778;2022-12-18T05:51:27;-6.20;99.90
19552;DHT22;9921;47.186;9.778;2022-12-18T05:53:54;-6.20;99.90
19552;DHT22;9921;47.186;9.778;2022-12-18T05:56:22;-6.10;99.90
19552;DHT22;9921;47.186;9.778;2022-12-18T05:58:51;-6.00;99.90
19552;DHT22;9921;47.186;9.778;2022-12-18T06:01:21;-6.00;99.90
19552;DHT22;9921;47.186;9.778;2022-12-18T06:03:48;-6.00;99.90
19552;DHT22;9921;47.186;9.778;2022-12-18T06:06:17;-6.20;99.90
19552;DHT22;9921;47.186;9.778;2022-12-18T06:08:44;-6.20;99.90
19552;DHT22;9921;47.186;9.778;2022-12-18T06:11:11;-6.30;99.90
19552;DHT22;9921;47.186;9.778;2022-12-18T06:13:38;-6.80;99.90
19552;DHT22;9921;47.186;9.778;2022-12-18T06:16:05;-7.00;99.90
19552;DHT22;9921;47.186;9.778;2022-12-18T06:18:36;-6.90;99.90
19552;DHT22;9921;47.186;9.778;2022-12-18T06:21:03;-6.80;99.90
19552;DHT22;9921;47.186;9.778;2022-12-18T06:23:30;-6.70;99.90
19552;DHT22;9921;47.186;9.778;2022-12-18T06:25:57;-6.80;99.90
19552;DHT22;9921;47.186;9.778;2022-12-18T06:28:24;-6.80;99.90
19552;DHT22;9921;47.186;9.778;2022-12-18T06:30:51;-6.60;99.90
19552;DHT22;9921;47.186;9.778;2022-12-18T06:33:18;-6.50;99.90
19552;DHT22;9921;47.186;9.778;2022-12-18T06:35:46;-6.40;99.90
19552;DHT22;9921;47.186;9.778;2022-12-18T06:38:13;-6.30;99.90
19552;DHT22;9921;47.186;9.778;2022-12-18T06:40:40;-6.30;99.90
19552;DHT22;9921;47.186;9.778;2022-12-18T06:43:07;-6.20;99.90
19552;DHT22;9921;47.186;9.778;2022-12-18T06:45:34;-6.20;99.90
19552;DHT22;9921;47.186;9.778;2022-12-18T06:48:01;-6.20;99.90
19552;DHT22;9921;47.186;9.778;2022-12-18T06:50:28;-6.10;99.90
19552;DHT22;9921;47.186;9.778;2022-12-18T06:52:56;-6.20;99.90
19552;DHT22;9921;47.186;9.778;2022-12-18T06:55:23;-6.30;99.90
19552;DHT22;9921;47.186;9.778;2022-12-18T06:57:52;-6.30;99.90
19552;DHT22;9921;47.186;9.778;2022-12-18T07:00:19;-6.70;99.90
19552;DHT22;9921;47.186;9.778;2022-12-18T07:02:45;-6.60;99.90
19552;DHT22;9921;47.186;9.778;2022-12-18T07:05:12;-6.60;99.90
19552;DHT22;9921;47.186;9.778;2022-12-18T07:07:39;-6.40;99.90
19552;DHT22;9921;47.186;9.778;2022-12-18T07:10:08;-6.30;99.90
19552;DHT22;9921;47.186;9.778;2022-12-18T07:12:35;-6.20;99.90
19552;DHT22;9921;47.186;9.778;2022-12-18T07:15:02;-6.20;99.90
19552;DHT22;9921;47.186;9.778;2022-12-18T07:17:29;-6.20;99.90
19552;DHT22;9921;47.186;9.778;2022-12-18T07:19:56;-6.10;99.90
19552;DHT22;9921;47.186;9.778;2022-12-18T07:22:23;-6.00;99.90
19552;DHT22;9921;47.186;9.778;2022-12-18T07:24:51;-6.00;99.90
19552;DHT22;9921;47.186;9.778;2022-12-18T07:27:19;-6.20;99.90
19552;DHT22;9921;47.186;9.778;2022-12-18T07:29:46;-6.20;99.90
19552;DHT22;9921;47.186;9.778;2022-12-18T07:32:13;-6.10;99.90
19552;DHT22;9921;47.186;9.778;2022-12-18T07:34:40;-6.10;99.90
19552;DHT22;9921;47.186;9.778;2022-12-18T07:37:07;-6.20;99.90
19552;DHT22;9921;47.186;9.778;2022-12-18T07:39:33;-6.40;99.90
19552;DHT22;9921;47.186;9.778;2022-12-18T07:42:00;-6.60;99.90
19552;DHT22;9921;47.186;9.778;2022-12-18T07:44:42;-6.60;99.90
19552;DHT22;9921;47.186;9.778;2022-12-18T07:47:09;-6.50;99.90
19552;DHT22;9921;47.186;9.778;2022-12-18T07:49:36;-6.40;99.90
19552;DHT22;9921;47.186;9.778;2022-12-18T07:52:03;-6.40;99.90
19552;DHT22;9921;47.186;9.778;2022-12-18T07:54:30;-6.30;99.90
19552;DHT22;9921;47.186;9.778;2022-12-18T07:56:56;-6.20;99.90
19552;DHT22;9921;47.186;9.778;2022-12-18T07:59:23;-6.20;99.90
19552;DHT22;9921;47.186;9.778;2022-12-18T08:01:51;-6.10;99.90
19552;DHT22;9921;47.186;9.778;2022-12-18T08:04:18;-6.10;99.90
19552;DHT22;9921;47.186;9.778;2022-12-18T08:06:46;-6.00;99.90
19552;DHT22;9921;47.186;9.778;2022-12-18T08:09:13;-6.00;99.90
19552;DHT22;9921;47.186;9.778;2022-12-18T08:11:40;-6.00;99.90
19552;DHT22;9921;47.186;9.778;2022-12-18T08:14:06;-5.90;99.90
19552;DHT22;9921;47.186;9.778;2022-12-18T08:16:34;-5.80;99.90
19552;DHT22;9921;47.186;9.778;2022-12-18T08:19:02;-5.90;99.90
19552;DHT22;9921;47.186;9.778;2022-12-18T08:21:30;-5.90;99.90
19552;DHT22;9921;47.186;9.778;2022-12-18T08:23:59;-6.30;99.90
19552;DHT22;9921;47.186;9.778;2022-12-18T08:26:27;-6.70;99.90
19552;DHT22;9921;47.186;9.778;2022-12-18T08:28:56;-6.90;99.90
19552;DHT22;9921;47.186;9.778;2022-12-18T08:31:23;-6.90;99.90
19552;DHT22;9921;47.186;9.778;2022-12-18T08:33:51;-7.00;99.90
19552;DHT22;9921;47.186;9.778;2022-12-18T08:36:19;-7.10;99.90
19552;DHT22;9921;47.186;9.778;2022-12-18T08:38:47;-6.90;99.90
19552;DHT22;9921;47.186;9.778;2022-12-18T08:41:15;-6.60;99.90
19552;DHT22;9921;47.186;9.778;2022-12-18T08:43:43;-6.40;99.90
19552;DHT22;9921;47.186;9.778;2022-12-18T08:46:32;-6.40;99.90
19552;DHT22;9921;47.186;9.778;2022-12-18T08:48:59;-6.40;99.90
19552;DHT22;9921;47.186;9.778;2022-12-18T08:51:27;-6.40;99.90
19552;DHT22;9921;47.186;9.778;2022-12-18T08:53:54;-6.40;99.90
19552;DHT22;9921;47.186;9.778;2022-12-18T08:56:21;-6.30;99.90
19552;DHT22;9921;47.186;9.778;2022-12-18T08:58:51;-6.40;99.90
19552;DHT22;9921;47.186;9.778;2022-12-18T09:01:18;-6.40;99.90
19552;DHT22;9921;47.186;9.778;2022-12-18T09:03:48;-6.30;99.90
19552;DHT22;9921;47.186;9.778;2022-12-18T09:06:16;-6.20;99.90
19552;DHT22;9921;47.186;9.778;2022-12-18T09:08:44;-6.30;99.90
19552;DHT22;9921;47.186;9.778;2022-12-18T09:11:18;-6.30;99.90
19552;DHT22;9921;47.186;9.778;2022-12-18T09:13:45;-6.40;99.90
19552;DHT22;9921;47.186;9.778;2022-12-18T09:16:13;-6.30;99.90
19552;DHT22;9921;47.186;9.778;2022-12-18T09:18:39;-6.10;99.90
19552;DHT22;9921;47.186;9.778;2022-12-18T09:21:11;-5.90;99.90
19552;DHT22;9921;47.186;9.778;2022-12-18T09:23:38;-5.60;99.90
19552;DHT22;9921;47.186;9.778;2022-12-18T09:26:07;-5.40;99.90
19552;DHT22;9921;47.186;9.778;2022-12-18T09:28:34;-5.10;99.90
19552;DHT22;9921;47.186;9.778;2022-12-18T09:31:04;-4.80;99.90
19552;DHT22;9921;47.186;9.778;2022-12-18T09:33:32;-4.50;99.90
19552;DHT22;9921;47.186;9.778;2022-12-18T09:36:01;-4.50;99.90
19552;DHT22;9921;47.186;9.778;2022-12-18T09:38:28;-4.50;99.90
19552;DHT22;9921;47.186;9.778;2022-12-18T09:40:59;-4.60;99.90
19552;DHT22;9921;47.186;9.778;2022-12-18T09:43:33;-4.60;99.90
19552;DHT22;9921;47.186;9.778;2022-12-18T09:46:04;-3.90;99.90
19552;DHT22;9921;47.186;9.778;2022-12-18T09:48:35;-2.70;99.90
19552;DHT22;9921;47.186;9.778;2022-12-18T09:51:09;-1.40;99.90
19552;DHT22;9921;47.186;9.778;2022-12-18T09:53:40;-0.40;99.90
19552;DHT22;9921;47.186;9.778;2022-12-18T09:56:14;0.50;99.90
19552;DHT22;9921;47.186;9.778;2022-12-18T09:58:47;1.40;99.90
19552;DHT22;9921;47.186;9.778;2022-12-18T10:01:20;2.70;99.90
19552;DHT22;9921;47.186;9.778;2022-12-18T10:03:48;4.10;99.90
19552;DHT22;9921;47.186;9.778;2022-12-18T10:06:20;5.40;99.90
19552;DHT22;9921;47.186;9.778;2022-12-18T10:08:54;6.80;99.90
19552;DHT22;9921;47.186;9.778;2022-12-18T10:11:32;6.00;99.90
19552;DHT22;9921;47.186;9.778;2022-12-18T10:14:07;4.80;99.90
19552;DHT22;9921;47.186;9.778;2022-12-18T10:16:40;3.20;99.90
19552;DHT22;9921;47.186;9.778;2022-12-18T10:19:18;1.60;99.90
19552;DHT22;9921;47.186;9.778;2022-12-18T10:21:51;0.20;99.90
19552;DHT22;9921;47.186;9.778;2022-12-18T10:24:28;-0.60;99.90
19552;DHT22;9921;47.186;9.778;2022-12-18T10:27:04;-1.10;99.90
19552;DHT22;9921;47.186;9.778;2022-12-18T10:29:37;-1.40;99.90
19552;DHT22;9921;47.186;9.778;2022-12-18T10:32:04;-1.60;99.90
19552;DHT22;9921;47.186;9.778;2022-12-18T10:34:31;-1.40;99.90
19552;DHT22;9921;47.186;9.778;2022-12-18T10:37:01;-1.40;99.90
19552;DHT22;9921;47.186;9.778;2022-12-18T10:39:30;-1.30;99.90
19552;DHT22;9921;47.186;9.778;2022-12-18T10:42:10;-1.40;99.90
19552;DHT22;9921;47.186;9.778;2022-12-18T10:44:40;-1.60;99.90
19552;DHT22;9921;47.186;9.778;2022-12-18T10:47:12;-1.60;99.90
19552;DHT22;9921;47.186;9.778;2022-12-18T10:49:46;-1.50;99.90
19552;DHT22;9921;47.186;9.778;2022-12-18T10:52:17;-1.40;99.90
19552;DHT22;9921;47.186;9.778;2022-12-18T10:54:49;-1.50;99.90
19552;DHT22;9921;47.186;9.778;2022-12-18T10:57:33;-1.60;99.90
19552;DHT22;9921;47.186;9.778;2022-12-18T11:00:21;-1.90;99.90
19552;DHT22;9921;47.186;9.778;2022-12-18T11:02:49;-2.10;99.90
19552;DHT22;9921;47.186;9.778;2022-12-18T11:05:27;-2.10;99.90
19552;DHT22;9921;47.186;9.778;2022-12-18T11:07:55;-2.10;99.90
19552;DHT22;9921;47.186;9.778;2022-12-18T11:10:25;-2.00;99.90
19552;DHT22;9921;47.186;9.778;2022-12-18T11:12:52;-1.90;99.90
19552;DHT22;9921;47.186;9.778;2022-12-18T11:15:23;-1.80;99.90
19552;DHT22;9921;47.186;9.778;2022-12-18T11:17:51;-1.70;99.90
19552;DHT22;9921;47.186;9.778;2022-12-18T11:20:23;-1.70;99.90
19552;DHT22;9921;47.186;9.778;2022-12-18T11:22:58;-1.70;99.90
19552;DHT22;9921;47.186;9.778;2022-12-18T11:25:28;-1.60;99.90
19552;DHT22;9921;47.186;9.778;2022-12-18T11:27:57;-1.40;99.90
19552;DHT22;9921;47.186;9.778;2022-12-18T11:30:27;-1.40;99.90
19552;DHT22;9921;47.186;9.778;2022-12-18T11:33:03;-1.30;99.90
19552;DHT22;9921;47.186;9.778;2022-12-18T11:35:45;-1.30;99.90
19552;DHT22;9921;47.186;9.778;2022-12-18T11:38:20;-1.20;99.90
19552;DHT22;9921;47.186;9.778;2022-12-18T11:40:53;-1.20;99.90
19552;DHT22;9921;47.186;9.778;2022-12-18T11:43:26;-1.10;99.90
19552;DHT22;9921;47.186;9.778;2022-12-18T11:45:59;-1.10;99.90
19552;DHT22;9921;47.186;9.778;2022-12-18T11:48:30;-0.90;99.90
19552;DHT22;9921;47.186;9.778;2022-12-18T11:51:00;-0.80;99.90
19552;DHT22;9921;47.186;9.778;2022-12-18T11:53:29;-0.70;99.90
19552;DHT22;9921;47.186;9.778;2022-12-18T11:56:04;-0.50;99.90
19552;DHT22;9921;47.186;9.778;2022-12-18T11:58:46;-0.50;99.90
19552;DHT22;9921;47.186;9.778;2022-12-18T12:01:33;-0.40;99.90
19552;DHT22;9921;47.186;9.778;2022-12-18T12:04:35;-0.20;99.90
19552;DHT22;9921;47.186;9.778;2022-12-18T12:07:15;-0.30;99.90
19552;DHT22;9921;47.186;9.778;2022-12-18T12:09:54;-0.40;99.90
19552;DHT22;9921;47.186;9.778;2022-12-18T12:12:30;-0.50;99.90
19552;DHT22;9921;47.186;9.778;2022-12-18T12:15:20;-0.60;99.90
19552;DHT22;9921;47.186;9.778;2022-12-18T12:17:55;-0.60;99.90
19552;DHT22;9921;47.186;9.778;2022-12-18T12:20:36;-0.60;99.90
19552;DHT22;9921;47.186;9.778;2022-12-18T12:23:22;-0.50;99.90
19552;DHT22;9921;47.186;9.778;2022-12-18T12:25:55;-0.40;99.90
19552;DHT22;9921;47.186;9.778;2022-12-18T12:28:36;-0.30;99.90
19552;DHT22;9921;47.186;9.778;2022-12-18T12:31:15;-0.30;99.90
19552;DHT22;9921;47.186;9.778;2022-12-18T12:33:52;-0.30;99.90
19552;DHT22;9921;47.186;9.778;2022-12-18T12:36:29;-0.30;99.90
19552;DHT22;9921;47.186;9.778;2022-12-18T12:39:00;-0.10;99.90
19552;DHT22;9921;47.186;9.778;2022-12-18T12:41:31;0.10;99.90
19552;DHT22;9921;47.186;9.778;2022-12-18T12:44:19;0.40;99.90
19552;DHT22;9921;47.186;9.778;2022-12-18T12:46:49;0.60;99.90
19552;DHT22;9921;47.186;9.778;2022-12-18T12:49:22;0.60;99.90
19552;DHT22;9921;47.186;9.778;2022-12-18T12:51:55;0.70;99.90
19552;DHT22;9921;47.186;9.778;2022-12-18T12:54:26;0.80;99.90
19552;DHT22;9921;47.186;9.778;2022-12-18T12:57:01;0.70;99.90
19552;DHT22;9921;47.186;9.778;2022-12-18T12:59:34;0.60;99.90
19552;DHT22;9921;47.186;9.778;2022-12-18T13:02:10;0.40;99.90
19552;DHT22;9921;47.186;9.778;2022-12-18T13:04:47;0.30;99.90
19552;DHT22;9921;47.186;9.778;2022-12-18T13:07:17;0.40;99.90
19552;DHT22;9921;47.186;9.778;2022-12-18T13:10:11;0.60;99.90
19552;DHT22;9921;47.186;9.778;2022-12-18T13:12:51;0.90;99.90
19552;DHT22;9921;47.186;9.778;2022-12-18T13:15:26;1.10;99.90
19552;DHT22;9921;47.186;9.778;2022-12-18T13:18:15;1.20;99.90
19552;DHT22;9921;47.186;9.778;2022-12-18T13:20:45;1.30;99.90
19552;DHT22;9921;47.186;9.778;2022-12-18T13:23:27;1.50;99.90
19552;DHT22;9921;47.186;9.778;2022-12-18T13:25:55;1.50;99.90
19552;DHT22;9921;47.186;9.778;2022-12-18T13:28:26;1.40;99.90
19552;DHT22;9921;47.186;9.778;2022-12-18T13:31:12;1.50;99.90
19552;DHT22;9921;47.186;9.778;2022-12-18T13:33:42;1.70;99.90
19552;DHT22;9921;47.186;9.778;2022-12-18T13:36:14;1.70;99.90
19552;DHT22;9921;47.186;9.778;2022-12-18T13:38:42;1.80;99.90
19552;DHT22;9921;47.186;9.778;2022-12-18T13:41:25;1.80;99.90
19552;DHT22;9921;47.186;9.778;2022-12-18T13:43:54;1.90;99.90
19552;DHT22;9921;47.186;9.778;2022-12-18T13:46:26;2.00;99.90
19552;DHT22;9921;47.186;9.778;2022-12-18T13:48:57;2.10;99.90
19552;DHT22;9921;47.186;9.778;2022-12-18T13:51:26;2.00;99.90
19552;DHT22;9921;47.186;9.778;2022-12-18T13:53:56;1.90;99.90
19552;DHT22;9921;47.186;9.778;2022-12-18T13:56:27;1.90;99.90
19552;DHT22;9921;47.186;9.778;2022-12-18T13:59:11;1.70;99.90
19552;DHT22;9921;47.186;9.778;2022-12-18T14:01:42;1.60;99.90
19552;DHT22;9921;47.186;9.778;2022-12-18T14:04:10;1.60;99.90
19552;DHT22;9921;47.186;9.778;2022-12-18T14:06:39;1.50;99.90
19552;DHT22;9921;47.186;9.778;2022-12-18T14:09:08;1.40;99.90
19552;DHT22;9921;47.186;9.778;2022-12-18T14:11:37;1.30;99.90
19552;DHT22;9921;47.186;9.778;2022-12-18T14:14:05;1.20;99.90
19552;DHT22;9921;47.186;9.778;2022-12-18T14:16:34;1.10;99.90
19552;DHT22;9921;47.186;9.778;2022-12-18T14:19:01;1.10;99.90
19552;DHT22;9921;47.186;9.778;2022-12-18T14:21:29;1.10;99.90
19552;DHT22;9921;47.186;9.778;2022-12-18T14:24:12;1.10;99.90
19552;DHT22;9921;47.186;9.778;2022-12-18T14:26:40;1.10;99.90
19552;DHT22;9921;47.186;9.778;2022-12-18T14:29:25;1.00;99.90
19552;DHT22;9921;47.186;9.778;2022-12-18T14:32:06;0.90;99.90
19552;DHT22;9921;47.186;9.778;2022-12-18T14:34:33;0.90;99.90
19552;DHT22;9921;47.186;9.778;2022-12-18T14:37:00;0.80;99.90
19552;DHT22;9921;47.186;9.778;2022-12-18T14:39:28;0.80;99.90
19552;DHT22;9921;47.186;9.778;2022-12-18T14:41:55;0.60;99.90
19552;DHT22;9921;47.186;9.778;2022-12-18T14:44:22;0.50;99.90
19552;DHT22;9921;47.186;9.778;2022-12-18T14:46:49;0.50;99.90
19552;DHT22;9921;47.186;9.778;2022-12-18T14:49:23;0.20;99.90
19552;DHT22;9921;47.186;9.778;2022-12-18T14:51:53;0.20;99.90
19552;DHT22;9921;47.186;9.778;2022-12-18T14:54:21;0.10;99.90
19552;DHT22;9921;47.186;9.778;2022-12-18T14:56:51;0.00;99.90
19552;DHT22;9921;47.186;9.778;2022-12-18T14:59:23;-0.10;99.90
19552;DHT22;9921;47.186;9.778;2022-12-18T15:02:00;-0.10;99.90
19552;DHT22;9921;47.186;9.778;2022-12-18T15:04:30;-0.10;99.90
19552;DHT22;9921;47.186;9.778;2022-12-18T15:07:05;-0.20;99.90
19552;DHT22;9921;47.186;9.778;2022-12-18T15:09:33;-0.20;99.90
19552;DHT22;9921;47.186;9.778;2022-12-18T15:12:02;-0.30;99.90
19552;DHT22;9921;47.186;9.778;2022-12-18T15:14:40;-0.40;99.90
19552;DHT22;9921;47.186;9.778;2022-12-18T15:17:16;-0.50;99.90
19552;DHT22;9921;47.186;9.778;2022-12-18T15:19:44;-0.60;99.90
19552;DHT22;9921;47.186;9.778;2022-12-18T15:22:20;-0.60;99.90
19552;DHT22;9921;47.186;9.778;2022-12-18T15:24:48;-0.70;99.90
19552;DHT22;9921;47.186;9.778;2022-12-18T15:27:29;-0.80;99.90
19552;DHT22;9921;47.186;9.778;2022-12-18T15:30:19;-0.90;99.90
19552;DHT22;9921;47.186;9.778;2022-12-18T15:32:47;-1.10;99.90
19552;DHT22;9921;47.186;9.778;2022-12-18T15:35:18;-1.10;99.90
19552;DHT22;9921;47.186;9.778;2022-12-18T15:37:45;-1.20;99.90
19552;DHT22;9921;47.186;9.778;2022-12-18T15:40:13;-1.30;99.90
19552;DHT22;9921;47.186;9.778;2022-12-18T15:42:42;-1.50;99.90
19552;DHT22;9921;47.186;9.778;2022-12-18T15:45:27;-1.60;99.90
19552;DHT22;9921;47.186;9.778;2022-12-18T15:47:54;-1.60;99.90
19552;DHT22;9921;47.186;9.778;2022-12-18T15:50:21;-1.70;99.90
19552;DHT22;9921;47.186;9.778;2022-12-18T15:52:49;-1.70;99.90
19552;DHT22;9921;47.186;9.778;2022-12-18T15:55:18;-1.70;99.90
19552;DHT22;9921;47.186;9.778;2022-12-18T15:58:04;-1.70;99.90
19552;DHT22;9921;47.186;9.778;2022-12-18T16:00:32;-1.60;99.90
19552;DHT22;9921;47.186;9.778;2022-12-18T16:02:59;-1.70;99.90
19552;DHT22;9921;47.186;9.778;2022-12-18T16:05:27;-1.80;99.90
19552;DHT22;9921;47.186;9.778;2022-12-18T16:07:54;-1.90;99.90
19552;DHT22;9921;47.186;9.778;2022-12-18T16:10:22;-1.90;99.90